sensor_id;sensor_type;location;lat;lon;timestamp;pressure;altitude;pressure_sealevel;temperature;humidity
81608;BME280;71022;48.122;11.576;2023-06-26T00:01:12;95657.31;;;20.35;50.40
81608;BME280;71022;48.122;11.576;2023-06-26T00:03:38;95659.69;;;20.36;50.64
81608;BME280;71022;48.122;11.576;2023-06-26T00:06:05;95659.78;;;20.29;50.98
81608;BME280;71022;48.122;11.576;2023-06-26T00:08:32;95652.56;;;20.32;50.36
81608;BME280;71022;48.122;11.576;2023-06-26T00:10:58;95650.53;;;20.70;49.73
81608;BME280;71022;48.122;11.576;2023-06-26T00:13:25;95645.28;;;20.75;49.35
81608;BME280;71022;48.122;11.576;2023-06-26T00:15:51;95649.13;;;20.55;50.22
81608;BME280;71022;48.122;11.576;2023-06-26T00:18:18;95656.38;;;20.49;50.38
81608;BME280;71022;48.122;11.576;2023-06-26T00:20:45;95655.28;;;20.39;50.79
81608;BME280;71022;48.122;11.576;2023-06-26T00:23:12;95658.03;;;20.42;50.58
81608;BME280;71022;48.122;11.576;2023-06-26T00:25:39;95665.28;;;20.36;50.90
81608;BME280;71022;48.122;11.576;2023-06-26T00:28:06;95666.16;;;20.30;51.21
81608;BME280;71022;48.122;11.576;2023-06-26T00:30:33;95663.53;;;20.09;51.64
81608;BME280;71022;48.122;11.576;2023-06-26T00:32:59;95668.13;;;19.88;52.70
81608;BME280;71022;48.122;11.576;2023-06-26T00:35:26;95668.16;;;19.81;52.87
81608;BME280;71022;48.122;11.576;2023-06-26T00:37:53;95666.53;;;19.84;52.56
81608;BME280;71022;48.122;11.576;2023-06-26T00:40:19;95665.53;;;20.08;51.68
81608;BME280;71022;48.122;11.576;2023-06-26T00:42:46;95658.31;;;20.14;51.58
81608;BME280;71022;48.122;11.576;2023-06-26T00:45:12;95653.91;;;20.13;51.78
81608;BME280;71022;48.122;11.576;2023-06-26T00:47:39;95663.06;;;20.17;51.84
81608;BME280;71022;48.122;11.576;2023-06-26T00:50:06;95656.69;;;20.17;51.77
81608;BME280;71022;48.122;11.576;2023-06-26T00:52:33;95666.28;;;20.12;52.00
81608;BME280;71022;48.122;11.576;2023-06-26T00:55:00;95669.13;;;20.05;52.16
81608;BME280;71022;48.122;11.576;2023-06-26T00:57:26;95660.31;;;20.10;51.61
81608;BME280;71022;48.122;11.576;2023-06-26T00:59:53;95668.28;;;20.12;51.92
81608;BME280;71022;48.122;11.576;2023-06-26T01:02:20;95662.28;;;20.13;51.61
81608;BME280;71022;48.122;11.576;2023-06-26T01:04:50;95660.72;;;20.12;51.55
81608;BME280;71022;48.122;11.576;2023-06-26T01:07:19;95658.00;;;20.05;51.66
81608;BME280;71022;48.122;11.576;2023-06-26T01:09:48;95649.56;;;20.12;52.18
81608;BME280;71022;48.122;11.576;2023-06-26T01:12:15;95654.22;;;20.26;50.70
81608;BME280;71022;48.122;11.576;2023-06-26T01:14:42;95659.47;;;20.17;50.75
81608;BME280;71022;48.122;11.576;2023-06-26T01:17:10;95657.81;;;20.23;50.63
81608;BME280;71022;48.122;11.576;2023-06-26T01:19:42;95647.78;;;20.32;50.05
81608;BME280;71022;48.122;11.576;2023-06-26T01:22:32;95653.19;;;20.47;49.67
81608;BME280;71022;48.122;11.576;2023-06-26T01:28:07;95658.19;;;20.28;49.83
81608;BME280;71022;48.122;11.576;2023-06-26T01:30:44;95651.03;;;20.27;49.76
81608;BME280;71022;48.122;11.576;2023-06-26T01:33:13;95653.50;;;20.18;49.68
81608;BME280;71022;48.122;11.576;2023-06-26T01:35:40;95654.38;;;20.08;49.79
81608;BME280;71022;48.122;11.576;2023-06-26T01:38:17;95649.66;;;20.02;49.81
81608;BME280;71022;48.122;11.576;2023-06-26T01:40:44;95645.97;;;20.12;49.21
81608;BME280;71022;48.122;11.576;2023-06-26T01:45:48;95644.06;;;20.05;48.94
81608;BME280;71022;48.122;11.576;2023-06-26T01:48:19;95648.50;;;19.96;49.18
81608;BME280;71022;48.122;11.576;2023-06-26T01:50:51;95646.94;;;19.95;48.69
81608;BME280;71022;48.122;11.576;2023-06-26T01:53:21;95650.50;;;19.95;49.05
81608;BME280;71022;48.122;11.576;2023-06-26T01:55:55;95639.25;;;20.09;48.56
81608;BME280;71022;48.122;11.576;2023-06-26T01:58:27;95643.28;;;20.01;48.29
81608;BME280;71022;48.122;11.576;2023-06-26T02:00:54;95640.09;;;20.03;48.51
81608;BME280;71022;48.122;11.576;2023-06-26T02:03:21;95635.31;;;20.03;48.45
81608;BME280;71022;48.122;11.576;2023-06-26T02:05:51;95638.19;;;19.93;48.44
81608;BME280;71022;48.122;11.576;2023-06-26T02:08:17;95639.41;;;19.92;48.80
81608;BME280;71022;48.122;11.576;2023-06-26T02:10:44;95641.78;;;19.93;48.73
81608;BME280;71022;48.122;11.576;2023-06-26T02:13:10;95652.19;;;19.89;48.69
81608;BME280;71022;48.122;11.576;2023-06-26T02:15:37;95653.00;;;19.86;48.67
81608;BME280;71022;48.122;11.576;2023-06-26T02:18:04;95646.53;;;19.96;48.36
81608;BME280;71022;48.122;11.576;2023-06-26T02:20:30;95643.38;;;19.94;48.54
81608;BME280;71022;48.122;11.576;2023-06-26T02:22:57;95644.94;;;19.95;48.67
81608;BME280;71022;48.122;11.576;2023-06-26T02:25:23;95653.72;;;19.94;48.76
81608;BME280;71022;48.122;11.576;2023-06-26T02:27:49;95647.31;;;19.97;48.62
81608;BME280;71022;48.122;11.576;2023-06-26T02:30:16;95653.38;;;19.88;48.65
81608;BME280;71022;48.122;11.576;2023-06-26T02:32:45;95658.59;;;19.86;48.97
81608;BME280;71022;48.122;11.576;2023-06-26T02:35:11;95657.84;;;19.78;49.28
81608;BME280;71022;48.122;11.576;2023-06-26T02:37:38;95659.41;;;19.83;49.27
81608;BME280;71022;48.122;11.576;2023-06-26T02:40:05;95653.84;;;19.83;49.10
81608;BME280;71022;48.122;11.576;2023-06-26T02:42:31;95651.44;;;19.81;49.18
81608;BME280;71022;48.122;11.576;2023-06-26T02:44:58;95647.63;;;19.65;49.29
81608;BME280;71022;48.122;11.576;2023-06-26T02:47:25;95649.19;;;19.66;49.46
81608;BME280;71022;48.122;11.576;2023-06-26T02:49:51;95649.94;;;19.70;49.22
81608;BME280;71022;48.122;11.576;2023-06-26T02:52:18;95655.53;;;19.70;49.10
81608;BME280;71022;48.122;11.576;2023-06-26T02:54:45;95652.28;;;19.75;49.33
81608;BME280;71022;48.122;11.576;2023-06-26T02:57:11;95652.56;;;19.91;48.61
81608;BME280;71022;48.122;11.576;2023-06-26T02:59:39;95651.91;;;19.76;49.04
81608;BME280;71022;48.122;11.576;2023-06-26T03:02:06;95653.03;;;19.82;48.70
81608;BME280;71022;48.122;11.576;2023-06-26T03:04:32;95649.66;;;19.54;49.46
81608;BME280;71022;48.122;11.576;2023-06-26T03:07:03;95646.56;;;19.45;49.77
81608;BME280;71022;48.122;11.576;2023-06-26T03:09:30;95660.00;;;19.57;49.71
81608;BME280;71022;48.122;11.576;2023-06-26T03:11:56;95648.34;;;19.69;49.84
81608;BME280;71022;48.122;11.576;2023-06-26T03:14:23;95650.81;;;19.60;49.58
81608;BME280;71022;48.122;11.576;2023-06-26T03:16:49;95647.03;;;19.84;48.67
81608;BME280;71022;48.122;11.576;2023-06-26T03:19:19;95641.91;;;19.79;49.15
81608;BME280;71022;48.122;11.576;2023-06-26T03:21:45;95645.19;;;19.67;49.28
81608;BME280;71022;48.122;11.576;2023-06-26T03:24:12;95644.44;;;19.63;49.42
81608;BME280;71022;48.122;11.576;2023-06-26T03:26:39;95650.13;;;19.49;49.88
81608;BME280;71022;48.122;11.576;2023-06-26T03:29:05;95644.56;;;19.45;49.84
81608;BME280;71022;48.122;11.576;2023-06-26T03:31:32;95640.63;;;19.39;50.08
81608;BME280;71022;48.122;11.576;2023-06-26T03:33:58;95645.31;;;19.53;49.65
81608;BME280;71022;48.122;11.576;2023-06-26T03:36:25;95647.00;;;19.40;50.03
81608;BME280;71022;48.122;11.576;2023-06-26T03:38:51;95643.88;;;19.27;50.33
81608;BME280;71022;48.122;11.576;2023-06-26T03:41:23;95648.75;;;19.12;50.71
81608;BME280;71022;48.122;11.576;2023-06-26T03:43:50;95655.13;;;19.13;50.77
81608;BME280;71022;48.122;11.576;2023-06-26T03:46:16;95650.34;;;19.13;50.58
81608;BME280;71022;48.122;11.576;2023-06-26T03:48:43;95652.19;;;19.34;50.06
81608;BME280;71022;48.122;11.576;2023-06-26T03:51:10;95656.03;;;19.58;49.59
81608;BME280;71022;48.122;11.576;2023-06-26T03:53:36;95650.03;;;19.59;49.24
81608;BME280;71022;48.122;11.576;2023-06-26T03:56:03;95654.09;;;19.48;49.18
81608;BME280;71022;48.122;11.576;2023-06-26T03:58:30;95649.88;;;19.25;50.07
81608;BME280;71022;48.122;11.576;2023-06-26T04:00:56;95647.94;;;19.15;50.23
81608;BME280;71022;48.122;11.576;2023-06-26T04:03:24;95651.94;;;19.11;50.38
81608;BME280;71022;48.122;11.576;2023-06-26T04:05:51;95655.13;;;19.09;50.21
81608;BME280;71022;48.122;11.576;2023-06-26T04:08:17;95654.72;;;19.14;50.50
81608;BME280;71022;48.122;11.576;2023-06-26T04:10:45;95657.41;;;19.25;50.31
81608;BME280;71022;48.122;11.576;2023-06-26T04:13:12;95661.72;;;19.33;49.77
81608;BME280;71022;48.122;11.576;2023-06-26T04:15:38;95646.19;;;19.35;50.25
81608;BME280;71022;48.122;11.576;2023-06-26T04:18:05;95649.28;;;19.55;48.93
81608;BME280;71022;48.122;11.576;2023-06-26T04:20:32;95645.38;;;19.46;49.57
81608;BME280;71022;48.122;11.576;2023-06-26T04:23:01;95645.31;;;19.53;49.62
81608;BME280;71022;48.122;11.576;2023-06-26T04:25:28;95645.91;;;19.78;48.78
81608;BME280;71022;48.122;11.576;2023-06-26T04:27:55;95652.28;;;19.75;49.14
81608;BME280;71022;48.122;11.576;2023-06-26T04:30:22;95653.22;;;19.61;49.24
81608;BME280;71022;48.122;11.576;2023-06-26T04:32:48;95652.75;;;19.66;49.12
81608;BME280;71022;48.122;11.576;2023-06-26T04:35:15;95655.66;;;20.00;47.92
81608;BME280;71022;48.122;11.576;2023-06-26T04:37:42;95666.47;;;19.95;48.04
81608;BME280;71022;48.122;11.576;2023-06-26T04:40:09;95655.22;;;20.02;47.85
81608;BME280;71022;48.122;11.576;2023-06-26T04:42:37;95664.59;;;19.81;49.04
81608;BME280;71022;48.122;11.576;2023-06-26T04:45:06;95658.63;;;19.79;48.25
81608;BME280;71022;48.122;11.576;2023-06-26T04:47:33;95654.75;;;19.66;48.87
81608;BME280;71022;48.122;11.576;2023-06-26T04:50:02;95661.91;;;19.67;48.98
81608;BME280;71022;48.122;11.576;2023-06-26T04:52:29;95660.25;;;19.76;49.04
81608;BME280;71022;48.122;11.576;2023-06-26T04:54:56;95651.41;;;19.85;48.86
81608;BME280;71022;48.122;11.576;2023-06-26T04:57:22;95641.63;;;20.07;47.61
81608;BME280;71022;48.122;11.576;2023-06-26T04:59:49;95656.44;;;20.01;48.33
81608;BME280;71022;48.122;11.576;2023-06-26T05:02:18;95655.19;;;20.05;48.63
81608;BME280;71022;48.122;11.576;2023-06-26T05:04:45;95648.72;;;20.19;47.55
81608;BME280;71022;48.122;11.576;2023-06-26T05:07:13;95651.94;;;20.14;47.85
81608;BME280;71022;48.122;11.576;2023-06-26T05:09:40;95646.78;;;20.12;47.91
81608;BME280;71022;48.122;11.576;2023-06-26T05:12:07;95651.09;;;20.17;48.11
81608;BME280;71022;48.122;11.576;2023-06-26T05:14:33;95642.31;;;20.22;47.85
81608;BME280;71022;48.122;11.576;2023-06-26T05:17:00;95647.03;;;20.28;47.09
81608;BME280;71022;48.122;11.576;2023-06-26T05:19:26;95652.53;;;20.35;47.36
81608;BME280;71022;48.122;11.576;2023-06-26T05:21:53;95658.03;;;20.42;46.68
81608;BME280;71022;48.122;11.576;2023-06-26T05:24:21;95653.75;;;20.31;46.65
81608;BME280;71022;48.122;11.576;2023-06-26T05:26:50;95648.16;;;20.34;46.47
81608;BME280;71022;48.122;11.576;2023-06-26T05:29:17;95651.72;;;20.35;47.64
81608;BME280;71022;48.122;11.576;2023-06-26T05:31:44;95648.63;;;20.29;46.40
81608;BME280;71022;48.122;11.576;2023-06-26T05:34:12;95650.97;;;20.31;47.60
81608;BME280;71022;48.122;11.576;2023-06-26T05:36:41;95653.38;;;20.32;47.24
81608;BME280;71022;48.122;11.576;2023-06-26T05:39:08;95659.56;;;20.47;46.11
81608;BME280;71022;48.122;11.576;2023-06-26T05:41:35;95652.41;;;20.46;46.53
81608;BME280;71022;48.122;11.576;2023-06-26T05:44:02;95649.97;;;20.52;46.14
81608;BME280;71022;48.122;11.576;2023-06-26T05:46:28;95652.13;;;20.71;46.02
81608;BME280;71022;48.122;11.576;2023-06-26T05:48:55;95653.56;;;20.82;45.57
81608;BME280;71022;48.122;11.576;2023-06-26T05:51:21;95659.03;;;20.93;45.81
81608;BME280;71022;48.122;11.576;2023-06-26T05:53:49;95656.13;;;21.00;45.72
81608;BME280;71022;48.122;11.576;2023-06-26T05:56:16;95664.16;;;21.28;44.34
81608;BME280;71022;48.122;11.576;2023-06-26T05:58:45;95658.13;;;21.57;43.71
81608;BME280;71022;48.122;11.576;2023-06-26T06:01:12;95655.50;;;21.96;43.11
81608;BME280;71022;48.122;11.576;2023-06-26T06:03:40;95657.03;;;22.24;42.83
81608;BME280;71022;48.122;11.576;2023-06-26T06:06:06;95658.19;;;22.69;42.77
81608;BME280;71022;48.122;11.576;2023-06-26T06:08:33;95658.28;;;23.21;41.92
81608;BME280;71022;48.122;11.576;2023-06-26T06:11:00;95657.00;;;23.61;40.00
81608;BME280;71022;48.122;11.576;2023-06-26T06:13:28;95645.06;;;24.06;38.60
81608;BME280;71022;48.122;11.576;2023-06-26T06:15:54;95651.75;;;24.28;38.66
81608;BME280;71022;48.122;11.576;2023-06-26T06:18:21;95639.34;;;24.70;38.91
81608;BME280;71022;48.122;11.576;2023-06-26T06:20:48;95643.63;;;25.04;37.41
81608;BME280;71022;48.122;11.576;2023-06-26T06:23:15;95642.44;;;25.43;36.87
81608;BME280;71022;48.122;11.576;2023-06-26T06:25:41;95653.84;;;25.77;36.42
81608;BME280;71022;48.122;11.576;2023-06-26T06:28:08;95644.81;;;25.95;34.80
81608;BME280;71022;48.122;11.576;2023-06-26T06:30:35;95646.84;;;26.07;34.81
81608;BME280;71022;48.122;11.576;2023-06-26T06:33:11;95640.59;;;26.37;34.59
81608;BME280;71022;48.122;11.576;2023-06-26T06:35:38;95651.53;;;26.69;33.16
81608;BME280;71022;48.122;11.576;2023-06-26T06:38:04;95654.25;;;26.60;33.75
81608;BME280;71022;48.122;11.576;2023-06-26T06:40:31;95646.94;;;27.06;32.92
81608;BME280;71022;48.122;11.576;2023-06-26T06:42:58;95653.25;;;27.10;33.14
81608;BME280;71022;48.122;11.576;2023-06-26T06:45:24;95656.66;;;27.27;33.19
81608;BME280;71022;48.122;11.576;2023-06-26T06:47:51;95652.75;;;27.55;30.82
81608;BME280;71022;48.122;11.576;2023-06-26T06:50:17;95656.25;;;27.59;31.84
81608;BME280;71022;48.122;11.576;2023-06-26T06:52:44;95654.09;;;27.72;30.62
81608;BME280;71022;48.122;11.576;2023-06-26T06:55:11;95657.53;;;27.67;30.31
81608;BME280;71022;48.122;11.576;2023-06-26T06:57:39;95654.38;;;27.65;30.17
81608;BME280;71022;48.122;11.576;2023-06-26T07:00:11;95650.28;;;27.66;29.66
81608;BME280;71022;48.122;11.576;2023-06-26T07:02:39;95652.44;;;27.53;29.88
81608;BME280;71022;48.122;11.576;2023-06-26T07:05:06;95648.84;;;27.53;30.27
81608;BME280;71022;48.122;11.576;2023-06-26T07:07:34;95656.50;;;27.52;30.39
81608;BME280;71022;48.122;11.576;2023-06-26T07:10:03;95644.31;;;27.55;30.22
81608;BME280;71022;48.122;11.576;2023-06-26T07:12:30;95647.56;;;27.44;30.77
81608;BME280;71022;48.122;11.576;2023-06-26T07:14:57;95649.00;;;27.58;30.35
81608;BME280;71022;48.122;11.576;2023-06-26T07:17:23;95651.66;;;27.83;30.35
81608;BME280;71022;48.122;11.576;2023-06-26T07:19:50;95648.63;;;27.78;30.57
81608;BME280;71022;48.122;11.576;2023-06-26T07:22:17;95650.38;;;27.84;30.32
81608;BME280;71022;48.122;11.576;2023-06-26T07:24:47;95651.28;;;28.12;30.19
81608;BME280;71022;48.122;11.576;2023-06-26T07:27:16;95657.09;;;28.18;29.52
81608;BME280;71022;48.122;11.576;2023-06-26T07:29:44;95649.28;;;28.31;30.22
81608;BME280;71022;48.122;11.576;2023-06-26T07:32:11;95652.47;;;28.51;30.68
81608;BME280;71022;48.122;11.576;2023-06-26T07:34:40;95649.66;;;28.69;29.69
81608;BME280;71022;48.122;11.576;2023-06-26T07:37:07;95641.84;;;28.73;29.76
81608;BME280;71022;48.122;11.576;2023-06-26T07:39:34;95654.53;;;28.96;30.06
81608;BME280;71022;48.122;11.576;2023-06-26T07:42:00;95643.38;;;28.92;29.87
81608;BME280;71022;48.122;11.576;2023-06-26T07:44:27;95650.63;;;28.84;30.00
81608;BME280;71022;48.122;11.576;2023-06-26T07:46:54;95650.63;;;28.84;29.61
81608;BME280;71022;48.122;11.576;2023-06-26T07:49:20;95648.09;;;28.95;29.80
81608;BME280;71022;48.122;11.576;2023-06-26T07:51:47;95648.38;;;29.25;29.79
81608;BME280;71022;48.122;11.576;2023-06-26T07:54:14;95645.53;;;29.43;29.67
81608;BME280;71022;48.122;11.576;2023-06-26T07:57:00;95647.25;;;29.49;29.20
81608;BME280;71022;48.122;11.576;2023-06-26T07:59:27;95643.94;;;29.51;29.68
81608;BME280;71022;48.122;11.576;2023-06-26T08:01:56;95647.44;;;29.79;27.83
81608;BME280;71022;48.122;11.576;2023-06-26T08:04:28;95647.28;;;29.91;28.32
81608;BME280;71022;48.122;11.576;2023-06-26T08:06:57;95644.22;;;29.62;28.56
81608;BME280;71022;48.122;11.576;2023-06-26T08:09:25;95638.88;;;29.55;29.18
81608;BME280;71022;48.122;11.576;2023-06-26T08:11:53;95643.66;;;29.22;29.77
81608;BME280;71022;48.122;11.576;2023-06-26T08:14:20;95636.59;;;29.35;29.47
81608;BME280;71022;48.122;11.576;2023-06-26T08:16:47;95639.25;;;29.39;29.66
81608;BME280;71022;48.122;11.576;2023-06-26T08:19:14;95635.75;;;29.53;29.95
81608;BME280;71022;48.122;11.576;2023-06-26T08:21:42;95640.31;;;29.59;29.31
81608;BME280;71022;48.122;11.576;2023-06-26T08:24:10;95632.91;;;29.62;29.40
81608;BME280;71022;48.122;11.576;2023-06-26T08:26:46;95643.44;;;29.61;29.34
81608;BME280;71022;48.122;11.576;2023-06-26T08:29:13;95636.28;;;29.75;29.18
81608;BME280;71022;48.122;11.576;2023-06-26T08:31:42;95631.25;;;29.79;30.38
81608;BME280;71022;48.122;11.576;2023-06-26T08:34:15;95645.31;;;30.06;30.15
81608;BME280;71022;48.122;11.576;2023-06-26T08:36:51;95643.72;;;30.05;29.49
81608;BME280;71022;48.122;11.576;2023-06-26T08:39:17;95642.13;;;30.13;29.88
81608;BME280;71022;48.122;11.576;2023-06-26T08:41:45;95640.44;;;30.40;29.73
81608;BME280;71022;48.122;11.576;2023-06-26T08:44:12;95631.44;;;30.41;29.09
81608;BME280;71022;48.122;11.576;2023-06-26T08:46:41;95630.91;;;30.52;27.26
81608;BME280;71022;48.122;11.576;2023-06-26T08:52:02;95636.19;;;30.02;29.03
81608;BME280;71022;48.122;11.576;2023-06-26T08:54:41;95628.03;;;30.04;28.54
81608;BME280;71022;48.122;11.576;2023-06-26T08:57:11;95622.66;;;30.06;28.31
81608;BME280;71022;48.122;11.576;2023-06-26T08:59:38;95625.66;;;30.27;28.76
81608;BME280;71022;48.122;11.576;2023-06-26T09:02:05;95624.63;;;30.48;28.78
81608;BME280;71022;48.122;11.576;2023-06-26T09:04:34;95618.09;;;30.95;27.40
81608;BME280;71022;48.122;11.576;2023-06-26T09:07:01;95619.69;;;30.96;27.93
81608;BME280;71022;48.122;11.576;2023-06-26T09:09:28;95627.25;;;30.75;27.01
81608;BME280;71022;48.122;11.576;2023-06-26T09:11:55;95619.88;;;31.07;27.84
81608;BME280;71022;48.122;11.576;2023-06-26T09:14:21;95618.13;;;31.09;25.92
81608;BME280;71022;48.122;11.576;2023-06-26T09:16:48;95606.78;;;31.09;26.39
81608;BME280;71022;48.122;11.576;2023-06-26T09:19:15;95607.56;;;31.24;26.29
81608;BME280;71022;48.122;11.576;2023-06-26T09:21:42;95612.59;;;31.30;25.65
81608;BME280;71022;48.122;11.576;2023-06-26T09:24:10;95611.00;;;30.99;26.29
81608;BME280;71022;48.122;11.576;2023-06-26T09:26:38;95611.69;;;31.09;26.16
81608;BME280;71022;48.122;11.576;2023-06-26T09:29:08;95604.34;;;30.16;27.97
81608;BME280;71022;48.122;11.576;2023-06-26T09:31:41;95610.66;;;30.35;28.13
81608;BME280;71022;48.122;11.576;2023-06-26T09:34:09;95606.28;;;30.58;28.44
81608;BME280;71022;48.122;11.576;2023-06-26T09:36:36;95603.00;;;30.27;28.03
81608;BME280;71022;48.122;11.576;2023-06-26T09:39:07;95600.31;;;29.67;27.91
81608;BME280;71022;48.122;11.576;2023-06-26T09:41:38;95595.31;;;29.94;27.25
81608;BME280;71022;48.122;11.576;2023-06-26T09:44:06;95599.25;;;30.21;29.27
81608;BME280;71022;48.122;11.576;2023-06-26T09:46:34;95593.19;;;30.37;28.64
81608;BME280;71022;48.122;11.576;2023-06-26T09:49:08;95597.59;;;29.72;27.12
81608;BME280;71022;48.122;11.576;2023-06-26T09:51:38;95594.31;;;29.23;28.33
81608;BME280;71022;48.122;11.576;2023-06-26T09:54:06;95589.47;;;29.65;28.05
81608;BME280;71022;48.122;11.576;2023-06-26T09:56:33;95590.53;;;29.35;28.35
81608;BME280;71022;48.122;11.576;2023-06-26T09:59:03;95579.53;;;29.28;27.30
81608;BME280;71022;48.122;11.576;2023-06-26T10:01:32;95581.13;;;29.29;26.88
81608;BME280;71022;48.122;11.576;2023-06-26T10:03:59;95584.72;;;29.71;26.58
81608;BME280;71022;48.122;11.576;2023-06-26T10:06:51;95584.91;;;30.24;26.43
81608;BME280;71022;48.122;11.576;2023-06-26T10:09:20;95579.47;;;30.59;25.30
81608;BME280;71022;48.122;11.576;2023-06-26T10:14:21;95570.97;;;31.27;26.22
81608;BME280;71022;48.122;11.576;2023-06-26T10:16:51;95565.50;;;31.38;23.92
81608;BME280;71022;48.122;11.576;2023-06-26T10:19:23;95569.59;;;31.07;24.76
81608;BME280;71022;48.122;11.576;2023-06-26T10:21:55;95573.03;;;30.58;25.45
81608;BME280;71022;48.122;11.576;2023-06-26T10:24:22;95575.94;;;30.26;25.18
81608;BME280;71022;48.122;11.576;2023-06-26T10:26:59;95577.44;;;29.79;25.33
81608;BME280;71022;48.122;11.576;2023-06-26T10:29:27;95569.84;;;29.94;25.62
81608;BME280;71022;48.122;11.576;2023-06-26T10:31:57;95574.47;;;30.30;25.04
81608;BME280;71022;48.122;11.576;2023-06-26T10:34:28;95560.44;;;30.74;24.52
81608;BME280;71022;48.122;11.576;2023-06-26T10:37:02;95571.63;;;30.92;25.47
81608;BME280;71022;48.122;11.576;2023-06-26T10:39:49;95569.56;;;30.78;25.27
81608;BME280;71022;48.122;11.576;2023-06-26T10:42:17;95571.88;;;30.65;24.65
81608;BME280;71022;48.122;11.576;2023-06-26T10:44:46;95566.75;;;30.54;24.51
81608;BME280;71022;48.122;11.576;2023-06-26T10:47:29;95559.47;;;30.39;25.73
81608;BME280;71022;48.122;11.576;2023-06-26T10:50:22;95565.75;;;30.43;25.47
81608;BME280;71022;48.122;11.576;2023-06-26T10:55:49;95556.22;;;30.55;24.66
81608;BME280;71022;48.122;11.576;2023-06-26T10:58:31;95554.94;;;30.08;25.19
81608;BME280;71022;48.122;11.576;2023-06-26T11:01:17;95553.97;;;29.88;25.04
81608;BME280;71022;48.122;11.576;2023-06-26T11:03:48;95560.66;;;29.99;26.29
81608;BME280;71022;48.122;11.576;2023-06-26T11:06:20;95549.28;;;30.08;25.17
81608;BME280;71022;48.122;11.576;2023-06-26T11:11:16;95550.91;;;30.00;25.50
81608;BME280;71022;48.122;11.576;2023-06-26T11:13:45;95562.59;;;29.93;25.97
81608;BME280;71022;48.122;11.576;2023-06-26T11:16:13;95545.81;;;30.13;25.95
81608;BME280;71022;48.122;11.576;2023-06-26T11:18:41;95552.22;;;30.38;25.54
81608;BME280;71022;48.122;11.576;2023-06-26T11:21:10;95553.31;;;30.64;25.04
81608;BME280;71022;48.122;11.576;2023-06-26T11:23:40;95545.59;;;30.41;25.14
81608;BME280;71022;48.122;11.576;2023-06-26T11:26:18;95549.72;;;30.16;26.06
81608;BME280;71022;48.122;11.576;2023-06-26T11:28:53;95558.81;;;29.96;26.73
81608;BME280;71022;48.122;11.576;2023-06-26T11:31:28;95537.22;;;29.66;26.06
81608;BME280;71022;48.122;11.576;2023-06-26T11:34:00;95554.25;;;29.57;26.00
81608;BME280;71022;48.122;11.576;2023-06-26T11:36:27;95547.97;;;29.62;26.25
81608;BME280;71022;48.122;11.576;2023-06-26T11:38:59;95553.25;;;29.69;25.26
81608;BME280;71022;48.122;11.576;2023-06-26T11:41:28;95548.19;;;29.82;26.40
81608;BME280;71022;48.122;11.576;2023-06-26T11:43:55;95551.03;;;29.82;26.09
81608;BME280;71022;48.122;11.576;2023-06-26T11:46:22;95549.34;;;29.99;26.43
81608;BME280;71022;48.122;11.576;2023-06-26T11:48:49;95542.66;;;30.11;26.63
81608;BME280;71022;48.122;11.576;2023-06-26T11:51:16;95546.81;;;30.01;26.76
81608;BME280;71022;48.122;11.576;2023-06-26T11:53:45;95541.09;;;30.10;26.70
81608;BME280;71022;48.122;11.576;2023-06-26T11:56:13;95551.19;;;30.26;26.90
81608;BME280;71022;48.122;11.576;2023-06-26T11:59:02;95539.75;;;30.44;26.83
81608;BME280;71022;48.122;11.576;2023-06-26T12:01:33;95530.16;;;30.42;25.83
81608;BME280;71022;48.122;11.576;2023-06-26T12:04:02;95535.47;;;30.49;26.74
81608;BME280;71022;48.122;11.576;2023-06-26T12:06:39;95523.44;;;30.54;26.08
81608;BME280;71022;48.122;11.576;2023-06-26T12:09:10;95530.72;;;30.69;25.13
81608;BME280;71022;48.122;11.576;2023-06-26T12:11:39;95527.50;;;30.91;24.62
81608;BME280;71022;48.122;11.576;2023-06-26T12:14:06;95531.13;;;31.06;24.59
81608;BME280;71022;48.122;11.576;2023-06-26T12:16:34;95532.63;;;31.16;24.35
81608;BME280;71022;48.122;11.576;2023-06-26T12:19:03;95534.56;;;31.10;24.19
81608;BME280;71022;48.122;11.576;2023-06-26T12:24:17;95537.44;;;30.57;24.91
81608;BME280;71022;48.122;11.576;2023-06-26T12:26:46;95533.53;;;30.55;24.86
81608;BME280;71022;48.122;11.576;2023-06-26T12:29:15;95539.22;;;30.69;25.56
81608;BME280;71022;48.122;11.576;2023-06-26T12:31:45;95526.50;;;30.65;25.78
81608;BME280;71022;48.122;11.576;2023-06-26T12:34:14;95531.50;;;30.70;26.75
81608;BME280;71022;48.122;11.576;2023-06-26T12:36:49;95534.38;;;30.99;25.64
81608;BME280;71022;48.122;11.576;2023-06-26T12:39:17;95533.19;;;30.91;25.62
81608;BME280;71022;48.122;11.576;2023-06-26T12:41:48;95541.38;;;30.75;25.81
81608;BME280;71022;48.122;11.576;2023-06-26T12:44:26;95533.94;;;30.77;25.46
81608;BME280;71022;48.122;11.576;2023-06-26T12:47:01;95524.97;;;30.93;24.93
81608;BME280;71022;48.122;11.576;2023-06-26T12:49:34;95526.41;;;30.89;24.63
81608;BME280;71022;48.122;11.576;2023-06-26T12:52:03;95530.44;;;30.82;25.43
81608;BME280;71022;48.122;11.576;2023-06-26T12:54:29;95513.53;;;31.02;25.29
81608;BME280;71022;48.122;11.576;2023-06-26T12:56:56;95519.22;;;31.02;23.94
81608;BME280;71022;48.122;11.576;2023-06-26T12:59:23;95515.31;;;31.14;23.48
81608;BME280;71022;48.122;11.576;2023-06-26T13:01:50;95517.09;;;30.59;23.55
81608;BME280;71022;48.122;11.576;2023-06-26T13:04:17;95519.19;;;30.73;23.26
81608;BME280;71022;48.122;11.576;2023-06-26T13:06:44;95509.09;;;30.87;24.41
81608;BME280;71022;48.122;11.576;2023-06-26T13:09:10;95496.97;;;30.86;24.65
81608;BME280;71022;48.122;11.576;2023-06-26T13:11:38;95515.06;;;30.89;24.78
81608;BME280;71022;48.122;11.576;2023-06-26T13:14:04;95503.44;;;30.87;25.32
81608;BME280;71022;48.122;11.576;2023-06-26T13:16:37;95502.66;;;30.86;24.82